sensor_id;sensor_type;location;lat;lon;timestamp;pressure;altitude;pressure_sealevel;temperature;humidity
8699;BME280;4386;51.236;6.742;2023-02-04T00:00:31;102697.44;;;10.12;75.35
8699;BME280;4386;51.236;6.742;2023-02-04T00:01:35;102701.84;;;10.11;75.20
8699;BME280;4386;51.236;6.742;2023-02-04T00:02:39;102703.69;;;10.11;75.26
8699;BME280;4386;51.236;6.742;2023-02-04T00:04:01;102710.66;;;10.12;75.27
8699;BME280;4386;51.236;6.742;2023-02-04T00:05:24;102701.94;;;10.10;75.36
8699;BME280;4386;51.236;6.742;2023-02-04T00:06:46;102716.09;;;10.09;75.40
8699;BME280;4386;51.236;6.742;2023-02-04T00:08:09;102711.69;;;10.09;75.52
8699;BME280;4386;51.236;6.742;2023-02-04T00:09:32;102707.25;;;10.10;75.68
8699;BME280;4386;51.236;6.742;2023-02-04T00:10:54;102714.31;;;10.09;75.38
8699;BME280;4386;51.236;6.742;2023-02-04T00:12:16;102719.72;;;10.08;75.42
8699;BME280;4386;51.236;6.742;2023-02-04T00:13:39;102722.34;;;10.08;75.81
8699;BME280;4386;51.236;6.742;2023-02-04T00:15:02;102725.84;;;10.08;75.57
8699;BME280;4386;51.236;6.742;2023-02-04T00:16:24;102716.09;;;10.09;75.46
8699;BME280;4386;51.236;6.742;2023-02-04T00:17:46;102720.50;;;10.10;75.77
8699;BME280;4386;51.236;6.742;2023-02-04T00:19:09;102725.00;;;10.08;75.60
8699;BME280;4386;51.236;6.742;2023-02-04T00:20:30;102732.00;;;10.09;75.63
8699;BME280;4386;51.236;6.742;2023-02-04T00:21:53;102734.66;;;10.09;75.56
8699;BME280;4386;51.236;6.742;2023-02-04T00:23:17;102738.25;;;10.08;75.69
8699;BME280;4386;51.236;6.742;2023-02-04T00:24:39;102727.66;;;10.08;75.71
8699;BME280;4386;51.236;6.742;2023-02-04T00:26:03;102732.97;;;10.08;75.63
8699;BME280;4386;51.236;6.742;2023-02-04T00:27:26;102724.16;;;10.07;75.66
8699;BME280;4386;51.236;6.742;2023-02-04T00:28:48;102724.16;;;10.07;75.87
8699;BME280;4386;51.236;6.742;2023-02-04T00:30:11;102725.94;;;10.07;75.66
8699;BME280;4386;51.236;6.742;2023-02-04T00:31:34;102725.94;;;10.07;75.81
8699;BME280;4386;51.236;6.742;2023-02-04T00:32:46;102731.22;;;10.07;75.67
8699;BME280;4386;51.236;6.742;2023-02-04T00:33:48;102732.97;;;10.08;75.81
8699;BME280;4386;51.236;6.742;2023-02-04T00:34:50;102736.44;;;10.08;75.76
8699;BME280;4386;51.236;6.742;2023-02-04T00:35:54;102728.50;;;10.08;75.93
8699;BME280;4386;51.236;6.742;2023-02-04T00:36:57;102729.34;;;10.09;75.82
8699;BME280;4386;51.236;6.742;2023-02-04T00:37:58;102735.53;;;10.09;75.75
8699;BME280;4386;51.236;6.742;2023-02-04T00:39:02;102739.03;;;10.10;75.75
8699;BME280;4386;51.236;6.742;2023-02-04T00:40:04;102736.38;;;10.10;75.69
8699;BME280;4386;51.236;6.742;2023-02-04T00:41:17;102743.47;;;10.09;75.70
8699;BME280;4386;51.236;6.742;2023-02-04T00:42:19;102737.25;;;10.10;75.62
8699;BME280;4386;51.236;6.742;2023-02-04T00:43:21;102731.09;;;10.10;75.69
8699;BME280;4386;51.236;6.742;2023-02-04T00:44:23;102720.50;;;10.10;75.61
8699;BME280;4386;51.236;6.742;2023-02-04T00:45:26;102726.66;;;10.10;75.65
8699;BME280;4386;51.236;6.742;2023-02-04T00:46:28;102731.00;;;10.11;75.67
8699;BME280;4386;51.236;6.742;2023-02-04T00:47:30;102734.50;;;10.12;75.86
8699;BME280;4386;51.236;6.742;2023-02-04T00:48:32;102732.81;;;10.11;75.79
8699;BME280;4386;51.236;6.742;2023-02-04T00:49:35;102725.69;;;10.11;75.66
8699;BME280;4386;51.236;6.742;2023-02-04T00:50:37;102733.66;;;10.11;75.52
8699;BME280;4386;51.236;6.742;2023-02-04T00:51:40;102726.66;;;10.10;75.78
8699;BME280;4386;51.236;6.742;2023-02-04T00:52:46;102731.09;;;10.10;75.67
8699;BME280;4386;51.236;6.742;2023-02-04T00:53:49;102734.66;;;10.09;75.62
8699;BME280;4386;51.236;6.742;2023-02-04T00:54:53;102739.09;;;10.08;75.56
8699;BME280;4386;51.236;6.742;2023-02-04T00:55:55;102734.66;;;10.09;75.75
8699;BME280;4386;51.236;6.742;2023-02-04T00:56:59;102737.31;;;10.09;75.65
8699;BME280;4386;51.236;6.742;2023-02-04T00:58:06;102745.25;;;10.09;75.70
8699;BME280;4386;51.236;6.742;2023-02-04T00:59:07;102745.25;;;10.09;75.61
8699;BME280;4386;51.236;6.742;2023-02-04T01:00:11;102744.38;;;10.08;75.57
8699;BME280;4386;51.236;6.742;2023-02-04T01:01:14;102752.28;;;10.10;75.54
8699;BME280;4386;51.236;6.742;2023-02-04T01:02:17;102739.09;;;10.08;75.70
8699;BME280;4386;51.236;6.742;2023-02-04T01:03:19;102745.25;;;10.09;75.65
8699;BME280;4386;51.236;6.742;2023-02-04T01:04:22;102749.69;;;10.08;75.44
8699;BME280;4386;51.236;6.742;2023-02-04T01:05:23;102754.16;;;10.08;75.55
8699;BME280;4386;51.236;6.742;2023-02-04T01:06:26;102748.84;;;10.08;75.49
8699;BME280;4386;51.236;6.742;2023-02-04T01:07:28;102750.63;;;10.07;75.50
8699;BME280;4386;51.236;6.742;2023-02-04T01:08:30;102759.50;;;10.06;75.61
8699;BME280;4386;51.236;6.742;2023-02-04T01:09:32;102757.72;;;10.07;75.54
8699;BME280;4386;51.236;6.742;2023-02-04T01:10:36;102751.56;;;10.06;75.52
8699;BME280;4386;51.236;6.742;2023-02-04T01:11:38;102750.69;;;10.06;75.58
8699;BME280;4386;51.236;6.742;2023-02-04T01:12:50;102756.84;;;10.06;75.65
8699;BME280;4386;51.236;6.742;2023-02-04T01:13:52;102750.69;;;10.06;75.55
8699;BME280;4386;51.236;6.742;2023-02-04T01:14:55;102756.84;;;10.06;75.73
8699;BME280;4386;51.236;6.742;2023-02-04T01:15:56;102752.41;;;10.07;75.59
8699;BME280;4386;51.236;6.742;2023-02-04T01:17:09;102756.84;;;10.06;75.69
8699;BME280;4386;51.236;6.742;2023-02-04T01:18:20;102747.13;;;10.07;75.64
8699;BME280;4386;51.236;6.742;2023-02-04T01:19:33;102755.13;;;10.05;75.68
8699;BME280;4386;51.236;6.742;2023-02-04T01:20:35;102760.41;;;10.05;75.74
8699;BME280;4386;51.236;6.742;2023-02-04T01:21:37;102754.25;;;10.05;75.67
8699;BME280;4386;51.236;6.742;2023-02-04T01:22:41;102749.81;;;10.05;75.84
8699;BME280;4386;51.236;6.742;2023-02-04T01:23:44;102753.34;;;10.06;75.70
8699;BME280;4386;51.236;6.742;2023-02-04T01:24:45;102752.41;;;10.07;75.85
8699;BME280;4386;51.236;6.742;2023-02-04T01:25:50;102754.16;;;10.08;75.89
8699;BME280;4386;51.236;6.742;2023-02-04T01:26:52;102753.19;;;10.09;75.76
8699;BME280;4386;51.236;6.742;2023-02-04T01:27:54;102756.78;;;10.08;75.72
8699;BME280;4386;51.236;6.742;2023-02-04T01:28:56;102758.56;;;10.07;75.81
8699;BME280;4386;51.236;6.742;2023-02-04T01:29:58;102747.97;;;10.07;75.93
8699;BME280;4386;51.236;6.742;2023-02-04T01:31:00;102753.28;;;10.07;75.84
8699;BME280;4386;51.236;6.742;2023-02-04T01:32:03;102754.16;;;10.08;75.82
8699;BME280;4386;51.236;6.742;2023-02-04T01:33:05;102760.38;;;10.07;75.84
8699;BME280;4386;51.236;6.742;2023-02-04T01:34:11;102763.00;;;10.07;75.97
8699;BME280;4386;51.236;6.742;2023-02-04T01:35:17;102763.94;;;10.06;75.91
8699;BME280;4386;51.236;6.742;2023-02-04T01:36:29;102764.84;;;10.05;75.92
8699;BME280;4386;51.236;6.742;2023-02-04T01:37:34;102768.44;;;10.04;75.84
8699;BME280;4386;51.236;6.742;2023-02-04T01:38:36;102771.09;;;10.04;76.00
8699;BME280;4386;51.236;6.742;2023-02-04T01:39:38;102769.34;;;10.03;75.98
8699;BME280;4386;51.236;6.742;2023-02-04T01:40:41;102782.59;;;10.03;76.04
8699;BME280;4386;51.236;6.742;2023-02-04T01:41:44;102783.47;;;10.03;76.13
8699;BME280;4386;51.236;6.742;2023-02-04T01:42:47;102782.59;;;10.03;76.07
8699;BME280;4386;51.236;6.742;2023-02-04T01:43:49;102779.94;;;10.03;75.92
8699;BME280;4386;51.236;6.742;2023-02-04T01:44:51;102780.88;;;10.02;76.09
8699;BME280;4386;51.236;6.742;2023-02-04T01:45:55;102784.47;;;10.01;75.93
8699;BME280;4386;51.236;6.742;2023-02-04T01:46:57;102784.47;;;10.01;75.96
8699;BME280;4386;51.236;6.742;2023-02-04T01:48:02;102782.72;;;10.00;75.90
8699;BME280;4386;51.236;6.742;2023-02-04T01:49:05;102786.31;;;9.99;76.05
8699;BME280;4386;51.236;6.742;2023-02-04T01:50:17;102792.47;;;9.99;76.08
8699;BME280;4386;51.236;6.742;2023-02-04T01:51:24;102785.44;;;9.98;76.05
8699;BME280;4386;51.236;6.742;2023-02-04T01:52:34;102789.91;;;9.98;75.94
8699;BME280;4386;51.236;6.742;2023-02-04T01:53:46;102787.31;;;9.96;76.02
8699;BME280;4386;51.236;6.742;2023-02-04T01:54:50;102791.72;;;9.95;76.02
8699;BME280;4386;51.236;6.742;2023-02-04T01:55:53;102788.31;;;9.93;75.92
8699;BME280;4386;51.236;6.742;2023-02-04T01:56:57;102798.91;;;9.93;75.95
8699;BME280;4386;51.236;6.742;2023-02-04T01:58:02;102798.06;;;9.91;75.95
8699;BME280;4386;51.236;6.742;2023-02-04T01:59:09;102795.44;;;9.91;75.88
8699;BME280;4386;51.236;6.742;2023-02-04T02:00:15;102795.44;;;9.91;75.93
8699;BME280;4386;51.236;6.742;2023-02-04T02:01:33;102795.44;;;9.91;76.00
8699;BME280;4386;51.236;6.742;2023-02-04T02:02:41;102798.06;;;9.91;76.05
8699;BME280;4386;51.236;6.742;2023-02-04T02:03:43;102791.94;;;9.91;76.01
8699;BME280;4386;51.236;6.742;2023-02-04T02:04:45;102793.72;;;9.90;75.90
8699;BME280;4386;51.236;6.742;2023-02-04T02:05:49;102791.06;;;9.90;75.92
8699;BME280;4386;51.236;6.742;2023-02-04T02:06:53;102788.44;;;9.90;76.00
8699;BME280;4386;51.236;6.742;2023-02-04T02:07:59;102789.28;;;9.91;76.01
8699;BME280;4386;51.236;6.742;2023-02-04T02:09:03;102791.94;;;9.91;75.94
8699;BME280;4386;51.236;6.742;2023-02-04T02:10:09;102792.00;;;9.89;75.91
8699;BME280;4386;51.236;6.742;2023-02-04T02:11:12;102794.63;;;9.89;75.89
8699;BME280;4386;51.236;6.742;2023-02-04T02:12:16;102800.84;;;9.88;75.88
8699;BME280;4386;51.236;6.742;2023-02-04T02:13:18;102805.31;;;9.88;75.88
8699;BME280;4386;51.236;6.742;2023-02-04T02:14:21;102805.31;;;9.88;75.88
8699;BME280;4386;51.236;6.742;2023-02-04T02:15:23;102805.31;;;9.88;75.79
8699;BME280;4386;51.236;6.742;2023-02-04T02:16:26;102806.16;;;9.88;75.83
8699;BME280;4386;51.236;6.742;2023-02-04T02:17:27;102807.88;;;9.89;76.04
8699;BME280;4386;51.236;6.742;2023-02-04T02:18:29;102802.59;;;9.89;76.01
8699;BME280;4386;51.236;6.742;2023-02-04T02:19:35;102810.47;;;9.91;76.04
8699;BME280;4386;51.236;6.742;2023-02-04T02:20:38;102819.22;;;9.93;75.78
8699;BME280;4386;51.236;6.742;2023-02-04T02:21:52;102818.31;;;9.94;75.74
8699;BME280;4386;51.236;6.742;2023-02-04T02:23:01;102815.56;;;9.95;75.82
8699;BME280;4386;51.236;6.742;2023-02-04T02:24:25;102821.81;;;9.94;75.92
8699;BME280;4386;51.236;6.742;2023-02-04T02:25:28;102820.09;;;9.93;75.83
8699;BME280;4386;51.236;6.742;2023-02-04T02:26:32;102821.81;;;9.94;75.81
8699;BME280;4386;51.236;6.742;2023-02-04T02:27:35;102825.38;;;9.93;75.92
8699;BME280;4386;51.236;6.742;2023-02-04T02:28:37;102825.38;;;9.93;75.86
8699;BME280;4386;51.236;6.742;2023-02-04T02:29:40;102830.69;;;9.93;75.75
8699;BME280;4386;51.236;6.742;2023-02-04T02:30:44;102825.38;;;9.93;75.62
8699;BME280;4386;51.236;6.742;2023-02-04T02:31:46;102825.38;;;9.93;75.62
8699;BME280;4386;51.236;6.742;2023-02-04T02:32:49;102825.38;;;9.93;75.62
8699;BME280;4386;51.236;6.742;2023-02-04T02:33:51;102821.91;;;9.91;75.69
8699;BME280;4386;51.236;6.742;2023-02-04T02:34:54;102828.06;;;9.92;75.67
8699;BME280;4386;51.236;6.742;2023-02-04T02:35:56;102823.66;;;9.92;75.75
8699;BME280;4386;51.236;6.742;2023-02-04T02:37:00;102828.06;;;9.92;75.73
8699;BME280;4386;51.236;6.742;2023-02-04T02:38:02;102826.38;;;9.91;75.85
8699;BME280;4386;51.236;6.742;2023-02-04T02:39:05;102831.59;;;9.92;75.68
8699;BME280;4386;51.236;6.742;2023-02-04T02:40:09;102828.94;;;9.92;75.79
8699;BME280;4386;51.236;6.742;2023-02-04T02:41:12;102829.94;;;9.90;75.68
8699;BME280;4386;51.236;6.742;2023-02-04T02:42:16;102826.41;;;9.89;75.80
8699;BME280;4386;51.236;6.742;2023-02-04T02:43:22;102830.81;;;9.90;75.75
8699;BME280;4386;51.236;6.742;2023-02-04T02:44:25;102829.84;;;9.91;75.61
8699;BME280;4386;51.236;6.742;2023-02-04T02:45:30;102824.63;;;9.90;75.79
8699;BME280;4386;51.236;6.742;2023-02-04T02:46:35;102829.06;;;9.89;75.75
8699;BME280;4386;51.236;6.742;2023-02-04T02:47:38;102828.19;;;9.89;75.76
8699;BME280;4386;51.236;6.742;2023-02-04T02:48:39;102832.63;;;9.88;75.90
8699;BME280;4386;51.236;6.742;2023-02-04T02:49:43;102829.97;;;9.88;75.84
8699;BME280;4386;51.236;6.742;2023-02-04T02:50:45;102832.63;;;9.88;75.82
8699;BME280;4386;51.236;6.742;2023-02-04T02:51:48;102832.63;;;9.88;75.80
8699;BME280;4386;51.236;6.742;2023-02-04T02:52:50;102837.94;;;9.88;75.82
8699;BME280;4386;51.236;6.742;2023-02-04T02:53:53;102833.50;;;9.89;75.93
8699;BME280;4386;51.236;6.742;2023-02-04T02:54:54;102839.66;;;9.89;75.92
8699;BME280;4386;51.236;6.742;2023-02-04T02:55:58;102834.38;;;9.89;75.89
8699;BME280;4386;51.236;6.742;2023-02-04T02:57:02;102831.72;;;9.89;75.84
8699;BME280;4386;51.236;6.742;2023-02-04T02:58:09;102833.44;;;9.90;75.91
8699;BME280;4386;51.236;6.742;2023-02-04T02:59:16;102836.16;;;9.89;75.88
8699;BME280;4386;51.236;6.742;2023-02-04T03:00:21;102831.81;;;9.88;75.80
8699;BME280;4386;51.236;6.742;2023-02-04T03:01:31;102837.16;;;9.86;75.80
8699;BME280;4386;51.236;6.742;2023-02-04T03:02:32;102831.97;;;9.83;75.87
8699;BME280;4386;51.236;6.742;2023-02-04T03:03:48;102838.19;;;9.82;75.77
8699;BME280;4386;51.236;6.742;2023-02-04T03:04:55;102831.19;;;9.81;76.08
8699;BME280;4386;51.236;6.742;2023-02-04T03:06:01;102835.63;;;9.81;76.11
8699;BME280;4386;51.236;6.742;2023-02-04T03:07:06;102836.50;;;9.81;75.97
8699;BME280;4386;51.236;6.742;2023-02-04T03:08:08;102835.63;;;9.81;76.11
8699;BME280;4386;51.236;6.742;2023-02-04T03:09:12;102834.75;;;9.80;76.20
8699;BME280;4386;51.236;6.742;2023-02-04T03:10:14;102840.03;;;9.80;76.27
8699;BME280;4386;51.236;6.742;2023-02-04T03:11:18;102845.34;;;9.80;76.05
8699;BME280;4386;51.236;6.742;2023-02-04T03:12:20;102842.69;;;9.80;76.30
8699;BME280;4386;51.236;6.742;2023-02-04T03:13:23;102846.22;;;9.81;76.32
8699;BME280;4386;51.236;6.742;2023-02-04T03:14:25;102844.44;;;9.81;76.31
8699;BME280;4386;51.236;6.742;2023-02-04T03:15:28;102839.19;;;9.80;76.21
8699;BME280;4386;51.236;6.742;2023-02-04T03:16:31;102846.22;;;9.81;76.23
8699;BME280;4386;51.236;6.742;2023-02-04T03:17:37;102840.09;;;9.79;76.25
8699;BME280;4386;51.236;6.742;2023-02-04T03:18:38;102843.69;;;9.78;76.34
8699;BME280;4386;51.236;6.742;2023-02-04T03:19:41;102840.19;;;9.77;76.53
8699;BME280;4386;51.236;6.742;2023-02-04T03:20:52;102849.91;;;9.77;76.43
8699;BME280;4386;51.236;6.742;2023-02-04T03:21:55;102854.31;;;9.76;76.42
8699;BME280;4386;51.236;6.742;2023-02-04T03:22:57;102848.16;;;9.76;76.59
8699;BME280;4386;51.236;6.742;2023-02-04T03:24:00;102851.69;;;9.76;76.70
8699;BME280;4386;51.236;6.742;2023-02-04T03:25:04;102853.47;;;9.76;76.61
8699;BME280;4386;51.236;6.742;2023-02-04T03:26:06;102851.75;;;9.75;76.92
8699;BME280;4386;51.236;6.742;2023-02-04T03:27:09;102855.25;;;9.75;76.64
8699;BME280;4386;51.236;6.742;2023-02-04T03:28:12;102844.72;;;9.74;76.76
8699;BME280;4386;51.236;6.742;2023-02-04T03:29:14;102850.03;;;9.74;76.66
8699;BME280;4386;51.236;6.742;2023-02-04T03:30:16;102849.16;;;9.73;76.94
8699;BME280;4386;51.236;6.742;2023-02-04T03:31:18;102849.16;;;9.73;76.88
8699;BME280;4386;51.236;6.742;2023-02-04T03:32:21;102845.72;;;9.71;76.82
8699;BME280;4386;51.236;6.742;2023-02-04T03:33:26;102852.72;;;9.72;76.89
8699;BME280;4386;51.236;6.742;2023-02-04T03:34:31;102850.19;;;9.69;76.93
8699;BME280;4386;51.236;6.742;2023-02-04T03:35:33;102851.97;;;9.69;76.82
8699;BME280;4386;51.236;6.742;2023-02-04T03:36:35;102850.28;;;9.68;77.04
8699;BME280;4386;51.236;6.742;2023-02-04T03:37:37;102854.72;;;9.67;77.01
8699;BME280;4386;51.236;6.742;2023-02-04T03:38:40;102858.34;;;9.65;77.24
8699;BME280;4386;51.236;6.742;2023-02-04T03:39:41;102861.03;;;9.63;77.08
8699;BME280;4386;51.236;6.742;2023-02-04T03:40:44;102861.94;;;9.62;77.25
8699;BME280;4386;51.236;6.742;2023-02-04T03:41:47;102862.03;;;9.61;77.15
8699;BME280;4386;51.236;6.742;2023-02-04T03:42:51;102872.66;;;9.59;77.36
8699;BME280;4386;51.236;6.742;2023-02-04T03:43:57;102865.53;;;9.61;77.27
8699;BME280;4386;51.236;6.742;2023-02-04T03:45:03;102872.66;;;9.59;77.33
8699;BME280;4386;51.236;6.742;2023-02-04T03:46:05;102874.44;;;9.59;77.54
8699;BME280;4386;51.236;6.742;2023-02-04T03:47:08;102870.09;;;9.58;77.59
8699;BME280;4386;51.236;6.742;2023-02-04T03:48:09;102878.09;;;9.56;77.55
8699;BME280;4386;51.236;6.742;2023-02-04T03:49:12;102878.09;;;9.56;77.43
8699;BME280;4386;51.236;6.742;2023-02-04T03:50:14;102873.78;;;9.54;77.63
8699;BME280;4386;51.236;6.742;2023-02-04T03:51:16;102870.25;;;9.53;77.67
8699;BME280;4386;51.236;6.742;2023-02-04T03:52:19;102870.34;;;9.52;77.68
8699;BME280;4386;51.236;6.742;2023-02-04T03:53:20;102874.75;;;9.51;77.88
8699;BME280;4386;51.236;6.742;2023-02-04T03:54:23;102878.31;;;9.50;77.73
8699;BME280;4386;51.236;6.742;2023-02-04T03:55:25;102873.03;;;9.50;77.79
8699;BME280;4386;51.236;6.742;2023-02-04T03:56:27;102871.28;;;9.49;77.91
8699;BME280;4386;51.236;6.742;2023-02-04T03:57:29;102873.94;;;9.49;77.97
8699;BME280;4386;51.236;6.742;2023-02-04T03:58:32;102877.53;;;9.48;78.02
8699;BME280;4386;51.236;6.742;2023-02-04T03:59:34;102881.09;;;9.47;77.97
8699;BME280;4386;51.236;6.742;2023-02-04T04:00:36;102874.13;;;9.45;78.13
8699;BME280;4386;51.236;6.742;2023-02-04T04:01:38;102873.28;;;9.44;78.00
8699;BME280;4386;51.236;6.742;2023-02-04T04:02:41;102883.00;;;9.43;78.10
8699;BME280;4386;51.236;6.742;2023-02-04T04:03:44;102876.84;;;9.43;78.12
8699;BME280;4386;51.236;6.742;2023-02-04T04:04:47;102875.13;;;9.42;78.08
8699;BME280;4386;51.236;6.742;2023-02-04T04:05:48;102872.53;;;9.40;78.03
8699;BME280;4386;51.236;6.742;2023-02-04T04:06:51;102875.28;;;9.37;78.41
8699;BME280;4386;51.236;6.742;2023-02-04T04:07:53;102862.09;;;9.36;78.39
8699;BME280;4386;51.236;6.742;2023-02-04T04:08:55;102872.69;;;9.36;78.77
8699;BME280;4386;51.236;6.742;2023-02-04T04:09:57;102877.16;;;9.35;78.48
8699;BME280;4386;51.236;6.742;2023-02-04T04:10:59;102871.00;;;9.35;78.37
8699;BME280;4386;51.236;6.742;2023-02-04T04:12:01;102871.91;;;9.34;78.47
8699;BME280;4386;51.236;6.742;2023-02-04T04:13:04;102866.59;;;9.34;78.65
8699;BME280;4386;51.236;6.742;2023-02-04T04:14:07;102867.53;;;9.33;78.49
8699;BME280;4386;51.236;6.742;2023-02-04T04:15:10;102864.03;;;9.32;78.74
8699;BME280;4386;51.236;6.742;2023-02-04T04:16:11;102870.16;;;9.33;78.65
8699;BME280;4386;51.236;6.742;2023-02-04T04:17:14;102868.47;;;9.32;78.77
8699;BME280;4386;51.236;6.742;2023-02-04T04:18:15;102868.47;;;9.32;78.74
8699;BME280;4386;51.236;6.742;2023-02-04T04:19:18;102868.47;;;9.32;78.66
8699;BME280;4386;51.236;6.742;2023-02-04T04:20:20;102871.09;;;9.32;78.79
8699;BME280;4386;51.236;6.742;2023-02-04T04:21:25;102872.88;;;9.31;78.87
8699;BME280;4386;51.236;6.742;2023-02-04T04:22:27;102882.59;;;9.31;78.88
8699;BME280;4386;51.236;6.742;2023-02-04T04:23:40;102883.47;;;9.31;78.91
8699;BME280;4386;51.236;6.742;2023-02-04T04:24:42;102878.19;;;9.31;79.10
8699;BME280;4386;51.236;6.742;2023-02-04T04:25:45;102888.75;;;9.31;78.97
8699;BME280;4386;51.236;6.742;2023-02-04T04:26:46;102886.13;;;9.31;79.08
8699;BME280;4386;51.236;6.742;2023-02-04T04:27:49;102893.19;;;9.31;79.31
8699;BME280;4386;51.236;6.742;2023-02-04T04:28:50;102886.16;;;9.30;79.23
8699;BME280;4386;51.236;6.742;2023-02-04T04:29:55;102890.53;;;9.31;79.17
8699;BME280;4386;51.236;6.742;2023-02-04T04:31:00;102893.19;;;9.31;79.08
8699;BME280;4386;51.236;6.742;2023-02-04T04:32:02;102892.41;;;9.29;79.04
8699;BME280;4386;51.236;6.742;2023-02-04T04:33:05;102898.59;;;9.28;79.17
8699;BME280;4386;51.236;6.742;2023-02-04T04:34:08;102898.59;;;9.28;79.44
8699;BME280;4386;51.236;6.742;2023-02-04T04:35:09;102901.25;;;9.28;79.35
8699;BME280;4386;51.236;6.742;2023-02-04T04:36:12;102902.09;;;9.28;79.38
8699;BME280;4386;51.236;6.742;2023-02-04T04:37:15;102897.72;;;9.27;79.31
8699;BME280;4386;51.236;6.742;2023-02-04T04:38:16;102902.97;;;9.29;79.47
8699;BME280;4386;51.236;6.742;2023-02-04T04:39:19;102905.63;;;9.29;79.41
8699;BME280;4386;51.236;6.742;2023-02-04T04:40:20;102908.28;;;9.29;79.47
8699;BME280;4386;51.236;6.742;2023-02-04T04:41:23;102909.09;;;9.29;79.30
8699;BME280;4386;51.236;6.742;2023-02-04T04:42:24;102910.03;;;9.28;79.37
8699;BME280;4386;51.236;6.742;2023-02-04T04:43:27;102907.31;;;9.30;79.52
8699;BME280;4386;51.236;6.742;2023-02-04T04:44:28;102907.31;;;9.30;79.38
8699;BME280;4386;51.236;6.742;2023-02-04T04:45:32;102899.47;;;9.28;79.15
8699;BME280;4386;51.236;6.742;2023-02-04T04:46:36;102903.88;;;9.28;79.54
8699;BME280;4386;51.236;6.742;2023-02-04T04:47:43;102899.47;;;9.28;79.46
8699;BME280;4386;51.236;6.742;2023-02-04T04:48:45;102907.41;;;9.28;79.67
8699;BME280;4386;51.236;6.742;2023-02-04T04:49:47;102910.03;;;9.28;79.73
8699;BME280;4386;51.236;6.742;2023-02-04T04:50:58;102918.84;;;9.29;79.48
8699;BME280;4386;51.236;6.742;2023-02-04T04:52:01;102906.53;;;9.28;79.46
8699;BME280;4386;51.236;6.742;2023-02-04T04:53:03;102908.31;;;9.27;79.69
8699;BME280;4386;51.236;6.742;2023-02-04T04:54:05;102918.91;;;9.27;79.67
8699;BME280;4386;51.236;6.742;2023-02-04T04:55:07;102913.59;;;9.27;79.73
8699;BME280;4386;51.236;6.742;2023-02-04T04:56:10;102909.22;;;9.26;79.56
8699;BME280;4386;51.236;6.742;2023-02-04T04:57:11;102909.28;;;9.25;79.90
8699;BME280;4386;51.236;6.742;2023-02-04T04:58:14;102919.88;;;9.25;79.70
8699;BME280;4386;51.236;6.742;2023-02-04T04:59:15;102923.44;;;9.24;79.97
8699;BME280;4386;51.236;6.742;2023-02-04T05:00:20;102919.00;;;9.24;79.85
8699;BME280;4386;51.236;6.742;2023-02-04T05:01:31;102912.81;;;9.25;79.93
8699;BME280;4386;51.236;6.742;2023-02-04T05:02:33;102920.75;;;9.25;80.05
8699;BME280;4386;51.236;6.742;2023-02-04T05:03:35;102910.22;;;9.24;80.02
8699;BME280;4386;51.236;6.742;2023-02-04T05:04:39;102913.75;;;9.23;79.88
8699;BME280;4386;51.236;6.742;2023-02-04T05:05:42;102917.34;;;9.22;80.01
8699;BME280;4386;51.236;6.742;2023-02-04T05:06:46;102919.13;;;9.21;79.88
8699;BME280;4386;51.236;6.742;2023-02-04T05:07:47;102920.00;;;9.22;79.90
8699;BME280;4386;51.236;6.742;2023-02-04T05:08:50;102924.41;;;9.21;80.11
8699;BME280;4386;51.236;6.742;2023-02-04T05:09:52;102927.94;;;9.22;80.00
8699;BME280;4386;51.236;6.742;2023-02-04T05:10:54;102924.47;;;9.20;80.21
8699;BME280;4386;51.236;6.742;2023-02-04T05:11:56;102927.09;;;9.20;80.01
8699;BME280;4386;51.236;6.742;2023-02-04T05:12:58;102921.03;;;9.18;80.14
8699;BME280;4386;51.236;6.742;2023-02-04T05:14:00;102919.28;;;9.17;80.17
8699;BME280;4386;51.236;6.742;2023-02-04T05:15:03;102922.78;;;9.17;80.04
8699;BME280;4386;51.236;6.742;2023-02-04T05:16:05;102921.94;;;9.17;80.19
8699;BME280;4386;51.236;6.742;2023-02-04T05:17:09;102921.94;;;9.17;80.11
8699;BME280;4386;51.236;6.742;2023-02-04T05:18:10;102930.72;;;9.17;80.09
8699;BME280;4386;51.236;6.742;2023-02-04T05:19:13;102933.38;;;9.17;80.15
8699;BME280;4386;51.236;6.742;2023-02-04T05:20:15;102933.38;;;9.17;80.14
8699;BME280;4386;51.236;6.742;2023-02-04T05:21:17;102938.66;;;9.17;80.30
8699;BME280;4386;51.236;6.742;2023-02-04T05:22:19;102937.81;;;9.17;80.20
8699;BME280;4386;51.236;6.742;2023-02-04T05:23:21;102935.16;;;9.17;80.31
8699;BME280;4386;51.236;6.742;2023-02-04T05:24:23;102942.19;;;9.18;80.29
8699;BME280;4386;51.236;6.742;2023-02-04T05:25:26;102938.63;;;9.19;80.30
8699;BME280;4386;51.236;6.742;2023-02-04T05:26:28;102940.41;;;9.18;80.21
8699;BME280;4386;51.236;6.742;2023-02-04T05:27:32;102942.13;;;9.19;80.28
8699;BME280;4386;51.236;6.742;2023-02-04T05:28:34;102941.28;;;9.19;80.35
8699;BME280;4386;51.236;6.742;2023-02-04T05:29:37;102950.00;;;9.21;80.38
8699;BME280;4386;51.236;6.742;2023-02-04T05:30:39;102944.72;;;9.21;80.29
8699;BME280;4386;51.236;6.742;2023-02-04T05:31:41;102953.56;;;9.20;80.27
8699;BME280;4386;51.236;6.742;2023-02-04T05:32:44;102945.69;;;9.18;80.29
8699;BME280;4386;51.236;6.742;2023-02-04T05:33:47;102950.00;;;9.21;80.28
8699;BME280;4386;51.236;6.742;2023-02-04T05:34:48;102944.72;;;9.21;80.43
8699;BME280;4386;51.236;6.742;2023-02-04T05:35:51;102940.28;;;9.21;80.63
8699;BME280;4386;51.236;6.742;2023-02-04T05:36:52;102948.22;;;9.21;80.38
8699;BME280;4386;51.236;6.742;2023-02-04T05:37:55;102942.97;;;9.20;80.46
8699;BME280;4386;51.236;6.742;2023-02-04T05:38:56;102945.63;;;9.20;80.46
8699;BME280;4386;51.236;6.742;2023-02-04T05:39:59;102947.44;;;9.19;80.66
8699;BME280;4386;51.236;6.742;2023-02-04T05:41:01;102945.63;;;9.20;80.56
8699;BME280;4386;51.236;6.742;2023-02-04T05:42:03;102951.84;;;9.19;80.52
8699;BME280;4386;51.236;6.742;2023-02-04T05:43:05;102954.50;;;9.19;80.55
8699;BME280;4386;51.236;6.742;2023-02-04T05:44:08;102957.16;;;9.19;80.60
8699;BME280;4386;51.236;6.742;2023-02-04T05:45:13;102957.16;;;9.19;80.66
8699;BME280;4386;51.236;6.742;2023-02-04T05:46:24;102957.16;;;9.19;80.50
8699;BME280;4386;51.236;6.742;2023-02-04T05:47:26;102962.44;;;9.19;80.61
8699;BME280;4386;51.236;6.742;2023-02-04T05:48:34;102958.84;;;9.20;80.51
8699;BME280;4386;51.236;6.742;2023-02-04T05:49:36;102962.44;;;9.19;80.38
8699;BME280;4386;51.236;6.742;2023-02-04T05:50:38;102963.31;;;9.19;80.74
8699;BME280;4386;51.236;6.742;2023-02-04T05:51:40;102969.50;;;9.18;80.67